sensor_id;sensor_type;location;lat;lon;timestamp;pressure;altitude;pressure_sealevel;temperature;humidity
75045;BME280;63614;56.026;35.960;2023-08-06T00:00:41;99475.53;;;21.00;69.89
75045;BME280;63614;56.026;35.960;2023-08-06T00:03:07;99479.19;;;20.94;70.12
75045;BME280;63614;56.026;35.960;2023-08-06T00:05:33;99482.63;;;20.95;70.58
75045;BME280;63614;56.026;35.960;2023-08-06T00:07:59;99488.72;;;20.95;70.47
75045;BME280;63614;56.026;35.960;2023-08-06T00:10:25;99491.38;;;20.95;70.31
75045;BME280;63614;56.026;35.960;2023-08-06T00:12:50;99484.19;;;20.91;70.57
75045;BME280;63614;56.026;35.960;2023-08-06T00:15:16;99484.97;;;20.91;70.75
75045;BME280;63614;56.026;35.960;2023-08-06T00:17:42;99488.69;;;20.90;70.78
75045;BME280;63614;56.026;35.960;2023-08-06T00:20:08;99493.41;;;20.88;70.66
75045;BME280;63614;56.026;35.960;2023-08-06T00:22:38;99493.41;;;20.88;70.86
75045;BME280;63614;56.026;35.960;2023-08-06T00:25:05;99483.91;;;20.87;71.00
75045;BME280;63614;56.026;35.960;2023-08-06T00:27:33;99489.44;;;20.85;71.10
75045;BME280;63614;56.026;35.960;2023-08-06T00:30:00;99476.72;;;20.82;71.31
75045;BME280;63614;56.026;35.960;2023-08-06T00:32:26;99480.66;;;20.80;71.27
75045;BME280;63614;56.026;35.960;2023-08-06T00:34:53;99483.56;;;20.78;71.46
75045;BME280;63614;56.026;35.960;2023-08-06T00:37:19;99484.66;;;20.82;71.45
75045;BME280;63614;56.026;35.960;2023-08-06T00:39:46;99475.38;;;20.80;71.46
75045;BME280;63614;56.026;35.960;2023-08-06T00:42:12;99479.38;;;20.82;71.52
75045;BME280;63614;56.026;35.960;2023-08-06T00:44:39;99475.66;;;20.83;71.57
75045;BME280;63614;56.026;35.960;2023-08-06T00:47:08;99482.53;;;20.84;71.62
75045;BME280;63614;56.026;35.960;2023-08-06T00:49:38;99481.19;;;20.82;71.54
75045;BME280;63614;56.026;35.960;2023-08-06T00:52:05;99475.63;;;20.78;71.85
75045;BME280;63614;56.026;35.960;2023-08-06T00:54:33;99473.47;;;20.75;72.08
75045;BME280;63614;56.026;35.960;2023-08-06T00:57:01;99472.94;;;20.73;72.13
75045;BME280;63614;56.026;35.960;2023-08-06T00:59:28;99473.72;;;20.74;72.57
75045;BME280;63614;56.026;35.960;2023-08-06T01:01:55;99474.81;;;20.73;72.36
75045;BME280;63614;56.026;35.960;2023-08-06T01:04:22;99478.19;;;20.68;72.69
75045;BME280;63614;56.026;35.960;2023-08-06T01:06:55;99477.38;;;20.67;72.89
75045;BME280;63614;56.026;35.960;2023-08-06T01:12:30;99484.28;;;20.68;73.01
75045;BME280;63614;56.026;35.960;2023-08-06T01:15:07;99483.22;;;20.70;73.09
75045;BME280;63614;56.026;35.960;2023-08-06T01:17:37;99476.59;;;20.67;73.13
75045;BME280;63614;56.026;35.960;2023-08-06T01:20:03;99480.28;;;20.66;73.33
75045;BME280;63614;56.026;35.960;2023-08-06T01:22:30;99486.63;;;20.65;73.42
75045;BME280;63614;56.026;35.960;2023-08-06T01:24:56;99489.50;;;20.63;73.53
75045;BME280;63614;56.026;35.960;2023-08-06T01:27:27;99491.56;;;20.61;73.93
75045;BME280;63614;56.026;35.960;2023-08-06T01:30:04;99488.63;;;20.58;73.95
75045;BME280;63614;56.026;35.960;2023-08-06T01:32:34;99505.00;;;20.55;73.88
75045;BME280;63614;56.026;35.960;2023-08-06T01:35:02;99496.28;;;20.54;74.19
75045;BME280;63614;56.026;35.960;2023-08-06T01:37:31;99492.84;;;20.54;74.10
75045;BME280;63614;56.026;35.960;2023-08-06T01:39:57;99499.66;;;20.49;74.29
75045;BME280;63614;56.026;35.960;2023-08-06T01:42:24;99491.75;;;20.49;74.47
75045;BME280;63614;56.026;35.960;2023-08-06T01:44:50;99496.22;;;20.49;74.45
75045;BME280;63614;56.026;35.960;2023-08-06T01:47:16;99497.03;;;20.49;74.49
75045;BME280;63614;56.026;35.960;2023-08-06T01:49:42;99490.38;;;20.47;74.52
75045;BME280;63614;56.026;35.960;2023-08-06T01:52:08;99495.66;;;20.47;74.93
75045;BME280;63614;56.026;35.960;2023-08-06T01:54:34;99493.59;;;20.49;74.84
75045;BME280;63614;56.026;35.960;2023-08-06T01:57:00;99500.78;;;20.54;74.61
75045;BME280;63614;56.026;35.960;2023-08-06T01:59:26;99511.13;;;20.60;74.62
75045;BME280;63614;56.026;35.960;2023-08-06T02:01:52;99499.59;;;20.66;74.38
75045;BME280;63614;56.026;35.960;2023-08-06T02:04:17;99503.41;;;20.81;74.10
75045;BME280;63614;56.026;35.960;2023-08-06T02:06:44;99506.91;;;20.92;73.54
75045;BME280;63614;56.026;35.960;2023-08-06T02:09:10;99493.19;;;20.95;73.30
75045;BME280;63614;56.026;35.960;2023-08-06T02:11:35;99497.81;;;21.10;72.88
75045;BME280;63614;56.026;35.960;2023-08-06T02:14:01;99488.09;;;21.20;72.21
75045;BME280;63614;56.026;35.960;2023-08-06T02:16:28;99496.38;;;21.34;71.81
75045;BME280;63614;56.026;35.960;2023-08-06T02:18:54;99494.31;;;21.47;71.55
75045;BME280;63614;56.026;35.960;2023-08-06T02:21:25;99491.19;;;21.50;71.25
75045;BME280;63614;56.026;35.960;2023-08-06T02:23:51;99498.66;;;21.63;70.72
75045;BME280;63614;56.026;35.960;2023-08-06T02:26:17;99501.13;;;21.80;70.51
75045;BME280;63614;56.026;35.960;2023-08-06T02:28:42;99499.56;;;21.89;69.76
75045;BME280;63614;56.026;35.960;2023-08-06T02:31:10;99509.16;;;22.01;69.62
75045;BME280;63614;56.026;35.960;2023-08-06T02:33:37;99504.69;;;22.22;68.84
75045;BME280;63614;56.026;35.960;2023-08-06T02:36:03;99499.13;;;22.28;68.49
75045;BME280;63614;56.026;35.960;2023-08-06T02:38:30;99504.47;;;22.34;68.16
75045;BME280;63614;56.026;35.960;2023-08-06T02:40:56;99500.81;;;22.45;67.50
75045;BME280;63614;56.026;35.960;2023-08-06T02:43:23;99499.75;;;22.56;67.25
75045;BME280;63614;56.026;35.960;2023-08-06T02:45:49;99504.53;;;22.75;66.42
75045;BME280;63614;56.026;35.960;2023-08-06T02:48:15;99505.31;;;22.85;65.93
75045;BME280;63614;56.026;35.960;2023-08-06T02:50:41;99504.25;;;23.07;65.44
75045;BME280;63614;56.026;35.960;2023-08-06T02:53:08;99500.53;;;23.29;65.01
75045;BME280;63614;56.026;35.960;2023-08-06T02:55:34;99505.25;;;23.52;64.01
75045;BME280;63614;56.026;35.960;2023-08-06T02:58:03;99503.03;;;23.75;63.12
75045;BME280;63614;56.026;35.960;2023-08-06T03:00:33;99517.56;;;24.03;62.56
75045;BME280;63614;56.026;35.960;2023-08-06T03:03:01;99509.78;;;24.12;61.91
75045;BME280;63614;56.026;35.960;2023-08-06T03:05:40;99510.91;;;24.45;61.18
75045;BME280;63614;56.026;35.960;2023-08-06T03:08:06;99508.22;;;24.51;60.53
75045;BME280;63614;56.026;35.960;2023-08-06T03:10:35;99511.69;;;24.51;60.69
75045;BME280;63614;56.026;35.960;2023-08-06T03:13:03;99507.22;;;24.81;59.92
75045;BME280;63614;56.026;35.960;2023-08-06T03:15:29;99512.53;;;24.81;59.74
75045;BME280;63614;56.026;35.960;2023-08-06T03:17:55;99512.06;;;25.08;59.12
75045;BME280;63614;56.026;35.960;2023-08-06T03:20:21;99513.13;;;25.36;58.59
75045;BME280;63614;56.026;35.960;2023-08-06T03:22:48;99518.72;;;25.59;57.74
75045;BME280;63614;56.026;35.960;2023-08-06T03:25:14;99514.16;;;25.65;57.61
75045;BME280;63614;56.026;35.960;2023-08-06T03:27:45;99514.53;;;25.77;56.94
75045;BME280;63614;56.026;35.960;2023-08-06T03:30:13;99510.47;;;26.04;56.39
75045;BME280;63614;56.026;35.960;2023-08-06T03:32:40;99513.81;;;26.15;56.16
75045;BME280;63614;56.026;35.960;2023-08-06T03:35:06;99509.13;;;26.25;56.20
75045;BME280;63614;56.026;35.960;2023-08-06T03:37:32;99503.56;;;26.60;55.32
75045;BME280;63614;56.026;35.960;2023-08-06T03:39:58;99510.78;;;26.92;54.12
75045;BME280;63614;56.026;35.960;2023-08-06T03:42:24;99492.06;;;26.78;54.27
75045;BME280;63614;56.026;35.960;2023-08-06T03:44:50;99506.47;;;27.10;53.99
75045;BME280;63614;56.026;35.960;2023-08-06T03:47:16;99503.22;;;27.41;53.23
75045;BME280;63614;56.026;35.960;2023-08-06T03:49:42;99501.22;;;27.75;52.29
75045;BME280;63614;56.026;35.960;2023-08-06T03:52:09;99505.13;;;27.68;52.67
75045;BME280;63614;56.026;35.960;2023-08-06T03:54:35;99495.16;;;28.11;51.77
75045;BME280;63614;56.026;35.960;2023-08-06T03:57:01;99501.06;;;28.21;51.36
75045;BME280;63614;56.026;35.960;2023-08-06T03:59:27;99498.03;;;28.37;50.88
75045;BME280;63614;56.026;35.960;2023-08-06T04:01:55;99495.63;;;28.72;50.45
75045;BME280;63614;56.026;35.960;2023-08-06T04:04:21;99498.59;;;28.93;49.71
75045;BME280;63614;56.026;35.960;2023-08-06T04:06:47;99501.41;;;29.19;48.92
75045;BME280;63614;56.026;35.960;2023-08-06T04:09:13;99492.34;;;29.38;48.87
75045;BME280;63614;56.026;35.960;2023-08-06T04:11:39;99487.31;;;29.45;48.52
75045;BME280;63614;56.026;35.960;2023-08-06T04:14:04;99490.84;;;29.71;48.00
75045;BME280;63614;56.026;35.960;2023-08-06T04:16:30;99499.91;;;30.02;47.15
75045;BME280;63614;56.026;35.960;2023-08-06T04:18:56;99493.91;;;30.22;47.28
75045;BME280;63614;56.026;35.960;2023-08-06T04:21:22;99493.75;;;30.28;47.12
75045;BME280;63614;56.026;35.960;2023-08-06T04:23:48;99494.03;;;30.52;46.57
75045;BME280;63614;56.026;35.960;2023-08-06T04:26:14;99485.91;;;30.87;46.25
75045;BME280;63614;56.026;35.960;2023-08-06T04:28:40;99485.00;;;30.83;46.36
75045;BME280;63614;56.026;35.960;2023-08-06T04:31:06;99490.59;;;31.08;46.02
75045;BME280;63614;56.026;35.960;2023-08-06T04:33:33;99490.56;;;31.55;44.94
75045;BME280;63614;56.026;35.960;2023-08-06T04:36:05;99486.38;;;31.66;44.34
75045;BME280;63614;56.026;35.960;2023-08-06T04:38:31;99487.13;;;31.76;44.73
75045;BME280;63614;56.026;35.960;2023-08-06T04:40:58;99487.50;;;32.08;44.05
75045;BME280;63614;56.026;35.960;2023-08-06T04:43:24;99487.00;;;32.14;42.96
75045;BME280;63614;56.026;35.960;2023-08-06T04:45:54;99476.84;;;32.20;42.77
75045;BME280;63614;56.026;35.960;2023-08-06T04:48:20;99483.22;;;32.49;42.71
75045;BME280;63614;56.026;35.960;2023-08-06T04:50:47;99482.19;;;32.74;42.76
75045;BME280;63614;56.026;35.960;2023-08-06T04:53:14;99482.78;;;33.05;41.88
75045;BME280;63614;56.026;35.960;2023-08-06T04:55:39;99483.41;;;32.65;41.90
75045;BME280;63614;56.026;35.960;2023-08-06T04:58:05;99476.06;;;33.23;41.06
75045;BME280;63614;56.026;35.960;2023-08-06T05:00:32;99480.19;;;33.08;40.95
75045;BME280;63614;56.026;35.960;2023-08-06T05:03:01;99481.66;;;33.18;41.17
75045;BME280;63614;56.026;35.960;2023-08-06T05:05:28;99484.78;;;33.08;41.72
75045;BME280;63614;56.026;35.960;2023-08-06T05:07:56;99492.75;;;33.54;41.01
75045;BME280;63614;56.026;35.960;2023-08-06T05:10:25;99478.59;;;34.10;39.63
75045;BME280;63614;56.026;35.960;2023-08-06T05:12:50;99480.03;;;34.19;40.18
75045;BME280;63614;56.026;35.960;2023-08-06T05:15:16;99483.75;;;34.43;39.27
75045;BME280;63614;56.026;35.960;2023-08-06T05:17:42;99477.84;;;34.53;39.34
75045;BME280;63614;56.026;35.960;2023-08-06T05:20:08;99471.31;;;34.54;40.18
75045;BME280;63614;56.026;35.960;2023-08-06T05:22:34;99467.06;;;34.53;39.07
75045;BME280;63614;56.026;35.960;2023-08-06T05:25:00;99478.66;;;35.18;38.39
75045;BME280;63614;56.026;35.960;2023-08-06T05:27:25;99465.56;;;35.36;37.82
75045;BME280;63614;56.026;35.960;2023-08-06T05:29:55;99459.13;;;35.24;38.08
75045;BME280;63614;56.026;35.960;2023-08-06T05:32:22;99466.44;;;35.40;37.50
75045;BME280;63614;56.026;35.960;2023-08-06T05:34:47;99464.03;;;35.54;37.34
75045;BME280;63614;56.026;35.960;2023-08-06T05:37:13;99464.97;;;35.62;37.71
75045;BME280;63614;56.026;35.960;2023-08-06T05:39:39;99466.81;;;35.58;37.92
75045;BME280;63614;56.026;35.960;2023-08-06T05:42:05;99467.56;;;35.74;37.03
75045;BME280;63614;56.026;35.960;2023-08-06T05:44:31;99463.69;;;35.04;38.49
75045;BME280;63614;56.026;35.960;2023-08-06T05:46:56;99458.69;;;35.38;37.87
75045;BME280;63614;56.026;35.960;2023-08-06T05:49:22;99463.28;;;35.73;38.03
75045;BME280;63614;56.026;35.960;2023-08-06T05:51:47;99458.53;;;35.86;37.67
75045;BME280;63614;56.026;35.960;2023-08-06T05:54:14;99462.38;;;36.24;36.80
75045;BME280;63614;56.026;35.960;2023-08-06T05:56:41;99461.69;;;35.53;37.91
75045;BME280;63614;56.026;35.960;2023-08-06T05:59:06;99458.47;;;35.82;37.97
75045;BME280;63614;56.026;35.960;2023-08-06T06:01:32;99455.03;;;36.05;37.10
75045;BME280;63614;56.026;35.960;2023-08-06T06:03:58;99458.53;;;36.06;36.89
75045;BME280;63614;56.026;35.960;2023-08-06T06:06:23;99444.41;;;35.96;37.37
75045;BME280;63614;56.026;35.960;2023-08-06T06:08:49;99442.53;;;35.42;39.16
75045;BME280;63614;56.026;35.960;2023-08-06T06:11:15;99442.81;;;35.21;39.63
75045;BME280;63614;56.026;35.960;2023-08-06T06:13:40;99451.94;;;34.81;40.78
75045;BME280;63614;56.026;35.960;2023-08-06T06:16:06;99450.41;;;34.51;41.33
75045;BME280;63614;56.026;35.960;2023-08-06T06:18:32;99444.09;;;34.03;41.48
75045;BME280;63614;56.026;35.960;2023-08-06T06:20:58;99446.97;;;33.94;42.49
75045;BME280;63614;56.026;35.960;2023-08-06T06:23:24;99445.22;;;33.74;43.05
75045;BME280;63614;56.026;35.960;2023-08-06T06:25:50;99447.66;;;33.26;44.63
75045;BME280;63614;56.026;35.960;2023-08-06T06:28:19;99449.09;;;33.23;43.91
75045;BME280;63614;56.026;35.960;2023-08-06T06:30:45;99445.63;;;32.98;44.75
75045;BME280;63614;56.026;35.960;2023-08-06T06:33:11;99443.13;;;32.81;43.65
75045;BME280;63614;56.026;35.960;2023-08-06T06:35:36;99447.09;;;32.62;44.36
75045;BME280;63614;56.026;35.960;2023-08-06T06:38:02;99449.66;;;32.46;45.07
75045;BME280;63614;56.026;35.960;2023-08-06T06:40:28;99444.06;;;32.51;45.56
75045;BME280;63614;56.026;35.960;2023-08-06T06:42:54;99446.97;;;32.46;44.87
75045;BME280;63614;56.026;35.960;2023-08-06T06:45:20;99446.03;;;32.42;46.41
75045;BME280;63614;56.026;35.960;2023-08-06T06:47:46;99444.44;;;32.29;46.62
75045;BME280;63614;56.026;35.960;2023-08-06T06:50:13;99440.50;;;32.26;46.36
75045;BME280;63614;56.026;35.960;2023-08-06T06:52:39;99447.34;;;32.23;45.39
75045;BME280;63614;56.026;35.960;2023-08-06T06:55:05;99439.03;;;32.16;45.34
75045;BME280;63614;56.026;35.960;2023-08-06T06:57:31;99437.66;;;32.10;45.36
75045;BME280;63614;56.026;35.960;2023-08-06T06:59:57;99431.50;;;31.89;44.87
75045;BME280;63614;56.026;35.960;2023-08-06T07:02:23;99435.03;;;31.80;45.26
75045;BME280;63614;56.026;35.960;2023-08-06T07:04:50;99438.25;;;31.74;45.38
75045;BME280;63614;56.026;35.960;2023-08-06T07:07:16;99435.22;;;31.75;45.16
75045;BME280;63614;56.026;35.960;2023-08-06T07:09:42;99438.50;;;31.81;44.78
75045;BME280;63614;56.026;35.960;2023-08-06T07:12:08;99430.91;;;31.62;44.09
75045;BME280;63614;56.026;35.960;2023-08-06T07:14:34;99425.31;;;31.67;45.18
75045;BME280;63614;56.026;35.960;2023-08-06T07:17:00;99432.00;;;31.61;44.99
75045;BME280;63614;56.026;35.960;2023-08-06T07:19:26;99434.84;;;31.64;45.58
75045;BME280;63614;56.026;35.960;2023-08-06T07:21:52;99430.53;;;31.72;45.00
75045;BME280;63614;56.026;35.960;2023-08-06T07:24:18;99432.88;;;31.74;45.20
75045;BME280;63614;56.026;35.960;2023-08-06T07:26:44;99428.94;;;31.71;45.51
75045;BME280;63614;56.026;35.960;2023-08-06T07:29:10;99422.50;;;31.63;44.84
75045;BME280;63614;56.026;35.960;2023-08-06T07:31:36;99417.13;;;31.63;45.08
75045;BME280;63614;56.026;35.960;2023-08-06T07:34:02;99421.06;;;31.66;45.81
75045;BME280;63614;56.026;35.960;2023-08-06T07:36:28;99422.19;;;31.65;46.85
75045;BME280;63614;56.026;35.960;2023-08-06T07:38:54;99423.69;;;31.75;47.22
75045;BME280;63614;56.026;35.960;2023-08-06T07:41:23;99417.31;;;31.79;46.36
75045;BME280;63614;56.026;35.960;2023-08-06T07:43:49;99416.00;;;31.85;46.12
75045;BME280;63614;56.026;35.960;2023-08-06T07:46:15;99412.34;;;31.90;46.09
75045;BME280;63614;56.026;35.960;2023-08-06T07:48:41;99415.63;;;31.45;45.76
75045;BME280;63614;56.026;35.960;2023-08-06T07:51:07;99415.06;;;31.39;45.76
75045;BME280;63614;56.026;35.960;2023-08-06T07:53:33;99409.03;;;31.42;44.95
75045;BME280;63614;56.026;35.960;2023-08-06T07:55:59;99408.59;;;31.40;44.96
75045;BME280;63614;56.026;35.960;2023-08-06T07:58:27;99407.66;;;31.36;45.37
75045;BME280;63614;56.026;35.960;2023-08-06T08:00:55;99411.41;;;31.44;45.88
75045;BME280;63614;56.026;35.960;2023-08-06T08:03:20;99403.44;;;31.56;45.98
75045;BME280;63614;56.026;35.960;2023-08-06T08:05:47;99412.28;;;31.57;44.98
75045;BME280;63614;56.026;35.960;2023-08-06T08:08:13;99404.66;;;31.59;44.96
75045;BME280;63614;56.026;35.960;2023-08-06T08:10:39;99406.34;;;31.42;45.41
75045;BME280;63614;56.026;35.960;2023-08-06T08:13:05;99409.81;;;31.43;45.85
75045;BME280;63614;56.026;35.960;2023-08-06T08:15:32;99404.22;;;31.27;46.69
75045;BME280;63614;56.026;35.960;2023-08-06T08:17:58;99406.78;;;31.44;46.94
75045;BME280;63614;56.026;35.960;2023-08-06T08:20:25;99410.75;;;31.47;46.38
75045;BME280;63614;56.026;35.960;2023-08-06T08:22:58;99409.28;;;31.49;44.85
75045;BME280;63614;56.026;35.960;2023-08-06T08:25:25;99405.00;;;31.57;44.64
75045;BME280;63614;56.026;35.960;2023-08-06T08:27:50;99402.47;;;31.52;44.42
75045;BME280;63614;56.026;35.960;2023-08-06T08:30:17;99408.97;;;31.51;45.01
75045;BME280;63614;56.026;35.960;2023-08-06T08:32:42;99406.16;;;31.47;44.30
75045;BME280;63614;56.026;35.960;2023-08-06T08:35:08;99398.53;;;31.49;45.19
75045;BME280;63614;56.026;35.960;2023-08-06T08:37:34;99400.09;;;31.59;44.62
75045;BME280;63614;56.026;35.960;2023-08-06T08:39:59;99400.69;;;31.35;44.41
75045;BME280;63614;56.026;35.960;2023-08-06T08:42:26;99393.88;;;31.17;44.22
75045;BME280;63614;56.026;35.960;2023-08-06T08:44:53;99396.19;;;30.97;45.78
75045;BME280;63614;56.026;35.960;2023-08-06T08:47:19;99390.53;;;31.20;43.10
75045;BME280;63614;56.026;35.960;2023-08-06T08:49:46;99394.97;;;31.15;43.92
75045;BME280;63614;56.026;35.960;2023-08-06T08:52:15;99382.56;;;31.02;44.46
75045;BME280;63614;56.026;35.960;2023-08-06T08:54:43;99395.56;;;31.21;44.72
75045;BME280;63614;56.026;35.960;2023-08-06T08:57:10;99387.28;;;31.05;43.72
75045;BME280;63614;56.026;35.960;2023-08-06T08:59:35;99379.22;;;31.05;44.32
75045;BME280;63614;56.026;35.960;2023-08-06T09:02:02;99385.50;;;31.09;45.25
75045;BME280;63614;56.026;35.960;2023-08-06T09:04:31;99375.09;;;31.08;45.33
75045;BME280;63614;56.026;35.960;2023-08-06T09:06:59;99378.81;;;31.24;43.18
75045;BME280;63614;56.026;35.960;2023-08-06T09:09:28;99372.94;;;31.22;41.84
75045;BME280;63614;56.026;35.960;2023-08-06T09:12:00;99375.41;;;31.36;43.45
75045;BME280;63614;56.026;35.960;2023-08-06T09:14:27;99375.19;;;31.41;44.06
75045;BME280;63614;56.026;35.960;2023-08-06T09:16:53;99369.69;;;31.38;42.13
75045;BME280;63614;56.026;35.960;2023-08-06T09:19:20;99370.63;;;31.42;42.17
75045;BME280;63614;56.026;35.960;2023-08-06T09:21:46;99365.63;;;31.31;42.22
75045;BME280;63614;56.026;35.960;2023-08-06T09:24:14;99363.91;;;31.27;42.86
75045;BME280;63614;56.026;35.960;2023-08-06T09:26:45;99367.94;;;31.42;43.53
75045;BME280;63614;56.026;35.960;2023-08-06T09:29:11;99372.38;;;31.38;42.02
75045;BME280;63614;56.026;35.960;2023-08-06T09:31:45;99364.31;;;31.38;42.38
75045;BME280;63614;56.026;35.960;2023-08-06T09:34:16;99366.41;;;31.32;42.54
75045;BME280;63614;56.026;35.960;2023-08-06T09:36:43;99356.19;;;31.25;42.57
75045;BME280;63614;56.026;35.960;2023-08-06T09:39:16;99357.19;;;31.42;43.96
75045;BME280;63614;56.026;35.960;2023-08-06T09:41:42;99354.41;;;31.50;43.26
75045;BME280;63614;56.026;35.960;2023-08-06T09:44:16;99349.34;;;31.58;43.90
75045;BME280;63614;56.026;35.960;2023-08-06T09:46:50;99343.16;;;31.57;43.49
75045;BME280;63614;56.026;35.960;2023-08-06T09:49:18;99348.22;;;31.59;43.96
75045;BME280;63614;56.026;35.960;2023-08-06T09:51:46;99339.94;;;31.64;44.12
75045;BME280;63614;56.026;35.960;2023-08-06T09:54:15;99342.91;;;31.71;42.46
75045;BME280;63614;56.026;35.960;2023-08-06T09:56:42;99335.69;;;31.63;42.94
75045;BME280;63614;56.026;35.960;2023-08-06T09:59:08;99336.56;;;31.55;43.68
75045;BME280;63614;56.026;35.960;2023-08-06T10:01:34;99344.31;;;31.47;42.51
75045;BME280;63614;56.026;35.960;2023-08-06T10:04:02;99338.16;;;31.47;42.95
75045;BME280;63614;56.026;35.960;2023-08-06T10:06:29;99333.66;;;31.60;43.04
75045;BME280;63614;56.026;35.960;2023-08-06T10:08:55;99325.94;;;31.58;41.97
75045;BME280;63614;56.026;35.960;2023-08-06T10:11:23;99323.25;;;31.58;42.78
75045;BME280;63614;56.026;35.960;2023-08-06T10:13:55;99313.31;;;31.50;43.09
75045;BME280;63614;56.026;35.960;2023-08-06T10:16:23;99318.63;;;31.59;42.26
75045;BME280;63614;56.026;35.960;2023-08-06T10:18:49;99323.69;;;31.39;42.09
75045;BME280;63614;56.026;35.960;2023-08-06T10:21:16;99318.09;;;31.44;42.71
75045;BME280;63614;56.026;35.960;2023-08-06T10:23:42;99313.19;;;31.46;42.93
75045;BME280;63614;56.026;35.960;2023-08-06T10:26:07;99308.22;;;31.57;43.69
75045;BME280;63614;56.026;35.960;2023-08-06T10:28:35;99301.44;;;31.51;42.26
75045;BME280;63614;56.026;35.960;2023-08-06T10:31:02;99304.09;;;31.60;42.38
75045;BME280;63614;56.026;35.960;2023-08-06T10:33:44;99302.50;;;31.59;41.95
75045;BME280;63614;56.026;35.960;2023-08-06T10:36:10;99299.75;;;31.67;42.04
75045;BME280;63614;56.026;35.960;2023-08-06T10:38:57;99301.53;;;31.63;41.54
75045;BME280;63614;56.026;35.960;2023-08-06T10:41:32;99299.88;;;31.71;43.79
75045;BME280;63614;56.026;35.960;2023-08-06T10:44:08;99311.72;;;31.70;43.56
75045;BME280;63614;56.026;35.960;2023-08-06T10:46:33;99296.69;;;31.57;42.50
75045;BME280;63614;56.026;35.960;2023-08-06T10:48:59;99312.03;;;31.56;41.82
75045;BME280;63614;56.026;35.960;2023-08-06T10:51:26;99297.66;;;31.52;42.11
75045;BME280;63614;56.026;35.960;2023-08-06T10:53:53;99296.03;;;31.60;42.98
75045;BME280;63614;56.026;35.960;2023-08-06T10:56:20;99301.97;;;31.65;44.41
75045;BME280;63614;56.026;35.960;2023-08-06T10:58:54;99297.09;;;31.80;43.10
75045;BME280;63614;56.026;35.960;2023-08-06T11:01:21;99299.03;;;31.92;43.11
75045;BME280;63614;56.026;35.960;2023-08-06T11:03:47;99295.09;;;31.89;42.03
75045;BME280;63614;56.026;35.960;2023-08-06T11:06:22;99293.53;;;31.88;42.15
75045;BME280;63614;56.026;35.960;2023-08-06T11:08:50;99285.34;;;31.84;41.63
75045;BME280;63614;56.026;35.960;2023-08-06T11:11:17;99282.53;;;31.81;42.09
75045;BME280;63614;56.026;35.960;2023-08-06T11:13:45;99288.50;;;31.86;41.41
75045;BME280;63614;56.026;35.960;2023-08-06T11:16:17;99294.69;;;31.99;42.17
75045;BME280;63614;56.026;35.960;2023-08-06T11:18:44;99283.13;;;31.99;41.72
75045;BME280;63614;56.026;35.960;2023-08-06T11:21:10;99283.38;;;32.06;41.82
75045;BME280;63614;56.026;35.960;2023-08-06T11:23:40;99275.22;;;32.27;40.82
75045;BME280;63614;56.026;35.960;2023-08-06T11:26:07;99276.59;;;32.33;41.41
75045;BME280;63614;56.026;35.960;2023-08-06T11:28:33;99274.56;;;32.30;41.24
75045;BME280;63614;56.026;35.960;2023-08-06T11:30:59;99271.09;;;32.30;41.67
75045;BME280;63614;56.026;35.960;2023-08-06T11:33:28;99269.75;;;32.23;41.03
75045;BME280;63614;56.026;35.960;2023-08-06T11:35:56;99273.78;;;32.30;40.91
75045;BME280;63614;56.026;35.960;2023-08-06T11:38:28;99261.09;;;32.30;41.49
75045;BME280;63614;56.026;35.960;2023-08-06T11:40:54;99272.34;;;32.20;41.28
75045;BME280;63614;56.026;35.960;2023-08-06T11:43:21;99258.06;;;32.19;39.96
75045;BME280;63614;56.026;35.960;2023-08-06T11:45:50;99256.03;;;32.16;41.69
75045;BME280;63614;56.026;35.960;2023-08-06T11:48:16;99261.91;;;32.18;41.30
75045;BME280;63614;56.026;35.960;2023-08-06T11:50:44;99254.16;;;32.17;39.80
75045;BME280;63614;56.026;35.960;2023-08-06T11:53:13;99255.38;;;32.19;39.65
75045;BME280;63614;56.026;35.960;2023-08-06T11:55:40;99251.00;;;32.27;40.73
75045;BME280;63614;56.026;35.960;2023-08-06T11:58:06;99246.75;;;32.26;40.43
75045;BME280;63614;56.026;35.960;2023-08-06T12:00:33;99255.38;;;32.32;41.65
75045;BME280;63614;56.026;35.960;2023-08-06T12:02:59;99245.06;;;32.34;40.64
75045;BME280;63614;56.026;35.960;2023-08-06T12:05:31;99249.09;;;32.40;39.83
75045;BME280;63614;56.026;35.960;2023-08-06T12:08:02;99243.16;;;32.47;40.90
75045;BME280;63614;56.026;35.960;2023-08-06T12:10:30;99239.00;;;32.37;41.24
75045;BME280;63614;56.026;35.960;2023-08-06T12:12:56;99239.69;;;32.34;41.15
75045;BME280;63614;56.026;35.960;2023-08-06T12:15:22;99230.94;;;32.25;40.53
75045;BME280;63614;56.026;35.960;2023-08-06T12:17:49;99235.19;;;32.26;40.87
75045;BME280;63614;56.026;35.960;2023-08-06T12:20:15;99230.81;;;32.21;41.70
75045;BME280;63614;56.026;35.960;2023-08-06T12:22:41;99241.59;;;32.21;41.35
75045;BME280;63614;56.026;35.960;2023-08-06T12:25:09;99234.53;;;32.16;41.37
75045;BME280;63614;56.026;35.960;2023-08-06T12:27:42;99236.06;;;32.05;41.65
75045;BME280;63614;56.026;35.960;2023-08-06T12:30:09;99229.56;;;32.06;40.89
75045;BME280;63614;56.026;35.960;2023-08-06T12:32:36;99230.47;;;31.98;40.31
75045;BME280;63614;56.026;35.960;2023-08-06T12:35:02;99233.25;;;32.01;40.48
75045;BME280;63614;56.026;35.960;2023-08-06T12:37:33;99229.38;;;32.11;40.60
75045;BME280;63614;56.026;35.960;2023-08-06T12:40:00;99224.50;;;31.92;41.76
75045;BME280;63614;56.026;35.960;2023-08-06T12:42:26;99224.50;;;31.92;40.43
75045;BME280;63614;56.026;35.960;2023-08-06T12:44:52;99216.31;;;31.89;41.99
75045;BME280;63614;56.026;35.960;2023-08-06T12:47:18;99220.56;;;31.77;41.53
75045;BME280;63614;56.026;35.960;2023-08-06T12:49:46;99217.06;;;31.77;41.40
75045;BME280;63614;56.026;35.960;2023-08-06T12:52:11;99211.69;;;31.64;42.57